Chincoteague, Virginia
Current Conditions -  °F | °C
As of 9:54 PM on Sunday 23 Nov 2014 (Local Time) from KWAL Reporting Station
Overcast Overcast  
Wind Chill: 56°   Ceiling: 5500
Heat Index: 56°   Visibility: 10mi
Dew Point: 54°   Wind: 8mph
Humidity: 93%   Direction: 160°SSE
Pressure: 29.99"   Gusts: NA
Location:  37.862°N, 75.4636°W
Report Text: KWAL 240254Z AUTO 16007KT 10SM SCT040 OVC055 13/12 A2999 RMK AO2 RAB18E33 SLP153 P0000 60000 T01330122 57035
Loading
Personal Weather Stations






























Interactive Weather Map New forecast layout! Learn more

10-Day Weather Forecast

Advertisements
Track Severe Weather on mobile